sensor_id;sensor_type;location;lat;lon;timestamp;temperature;humidity
8043;DHT22;4064;48.132;11.366;2022-12-13T00:01:15;-7.40;99.90
8043;DHT22;4064;48.132;11.366;2022-12-13T00:03:41;-7.50;99.90
8043;DHT22;4064;48.132;11.366;2022-12-13T00:06:08;-7.50;99.90
8043;DHT22;4064;48.132;11.366;2022-12-13T00:08:34;-7.50;99.90
8043;DHT22;4064;48.132;11.366;2022-12-13T00:11:02;-7.50;99.90
8043;DHT22;4064;48.132;11.366;2022-12-13T00:13:28;-7.60;99.90
8043;DHT22;4064;48.132;11.366;2022-12-13T00:16:02;-7.60;99.90
8043;DHT22;4064;48.132;11.366;2022-12-13T00:18:29;-7.50;99.90
8043;DHT22;4064;48.132;11.366;2022-12-13T00:20:55;-7.50;99.90
8043;DHT22;4064;48.132;11.366;2022-12-13T00:23:20;-7.50;99.90
8043;DHT22;4064;48.132;11.366;2022-12-13T00:25:46;-7.50;99.90
8043;DHT22;4064;48.132;11.366;2022-12-13T00:28:12;-7.60;99.90
8043;DHT22;4064;48.132;11.366;2022-12-13T00:30:38;-7.60;99.90
8043;DHT22;4064;48.132;11.366;2022-12-13T00:33:07;-7.70;99.90
8043;DHT22;4064;48.132;11.366;2022-12-13T00:35:38;-7.70;99.90
8043;DHT22;4064;48.132;11.366;2022-12-13T00:38:04;-7.60;99.90
8043;DHT22;4064;48.132;11.366;2022-12-13T00:40:29;-7.80;99.90
8043;DHT22;4064;48.132;11.366;2022-12-13T00:42:55;-7.80;99.90
8043;DHT22;4064;48.132;11.366;2022-12-13T00:45:21;-8.00;99.90
8043;DHT22;4064;48.132;11.366;2022-12-13T00:47:46;-8.00;99.90
8043;DHT22;4064;48.132;11.366;2022-12-13T00:50:12;-8.10;99.90
8043;DHT22;4064;48.132;11.366;2022-12-13T00:52:38;-8.00;99.90
8043;DHT22;4064;48.132;11.366;2022-12-13T00:55:04;-8.10;99.90
8043;DHT22;4064;48.132;11.366;2022-12-13T00:57:30;-8.00;99.90
8043;DHT22;4064;48.132;11.366;2022-12-13T00:59:55;-8.10;99.90
8043;DHT22;4064;48.132;11.366;2022-12-13T01:02:21;-8.10;99.90
8043;DHT22;4064;48.132;11.366;2022-12-13T01:04:49;-8.10;99.90
8043;DHT22;4064;48.132;11.366;2022-12-13T01:07:14;-8.10;99.90
8043;DHT22;4064;48.132;11.366;2022-12-13T01:09:40;-8.20;99.90
8043;DHT22;4064;48.132;11.366;2022-12-13T01:12:07;-8.20;99.90
8043;DHT22;4064;48.132;11.366;2022-12-13T01:14:35;-8.20;99.90
8043;DHT22;4064;48.132;11.366;2022-12-13T01:17:00;-8.30;99.90
8043;DHT22;4064;48.132;11.366;2022-12-13T01:19:27;-8.30;99.90
8043;DHT22;4064;48.132;11.366;2022-12-13T01:21:54;-8.20;99.90
8043;DHT22;4064;48.132;11.366;2022-12-13T01:24:20;-8.30;99.90
8043;DHT22;4064;48.132;11.366;2022-12-13T01:26:47;-8.20;99.90
8043;DHT22;4064;48.132;11.366;2022-12-13T01:29:12;-8.30;99.90
8043;DHT22;4064;48.132;11.366;2022-12-13T01:31:38;-8.10;99.90
8043;DHT22;4064;48.132;11.366;2022-12-13T01:34:07;-8.00;99.90
8043;DHT22;4064;48.132;11.366;2022-12-13T01:36:39;-7.90;99.90
8043;DHT22;4064;48.132;11.366;2022-12-13T01:39:05;-7.90;99.90
8043;DHT22;4064;48.132;11.366;2022-12-13T01:41:32;-7.90;99.90
8043;DHT22;4064;48.132;11.366;2022-12-13T01:44:50;-8.00;99.90
8043;DHT22;4064;48.132;11.366;2022-12-13T01:46:51;-7.90;99.90
8043;DHT22;4064;48.132;11.366;2022-12-13T01:49:17;-7.90;99.90
8043;DHT22;4064;48.132;11.366;2022-12-13T01:51:50;-7.90;99.90
8043;DHT22;4064;48.132;11.366;2022-12-13T01:54:20;-7.90;99.90
8043;DHT22;4064;48.132;11.366;2022-12-13T01:56:50;-7.90;99.90
8043;DHT22;4064;48.132;11.366;2022-12-13T01:59:17;-7.90;99.90
8043;DHT22;4064;48.132;11.366;2022-12-13T02:01:45;-8.00;99.90
8043;DHT22;4064;48.132;11.366;2022-12-13T02:04:11;-8.00;99.90
8043;DHT22;4064;48.132;11.366;2022-12-13T02:06:42;-8.10;99.90
8043;DHT22;4064;48.132;11.366;2022-12-13T02:09:09;-8.00;99.90
8043;DHT22;4064;48.132;11.366;2022-12-13T02:11:37;-8.00;99.90
8043;DHT22;4064;48.132;11.366;2022-12-13T02:14:05;-7.90;99.90
8043;DHT22;4064;48.132;11.366;2022-12-13T02:17:00;-7.90;99.90
8043;DHT22;4064;48.132;11.366;2022-12-13T02:25:05;-8.10;99.90
8043;DHT22;4064;48.132;11.366;2022-12-13T02:30:49;-8.10;99.90
8043;DHT22;4064;48.132;11.366;2022-12-13T02:33:48;-8.10;99.90
8043;DHT22;4064;48.132;11.366;2022-12-13T02:39:00;-8.20;99.90
8043;DHT22;4064;48.132;11.366;2022-12-13T02:41:29;-8.10;99.90
8043;DHT22;4064;48.132;11.366;2022-12-13T02:44:05;-8.20;99.90
8043;DHT22;4064;48.132;11.366;2022-12-13T02:46:38;-8.20;99.90
8043;DHT22;4064;48.132;11.366;2022-12-13T02:49:08;-8.20;99.90
8043;DHT22;4064;48.132;11.366;2022-12-13T02:51:34;-8.20;99.90
8043;DHT22;4064;48.132;11.366;2022-12-13T02:54:01;-8.20;99.90
8043;DHT22;4064;48.132;11.366;2022-12-13T02:56:27;-8.20;99.90
8043;DHT22;4064;48.132;11.366;2022-12-13T02:58:55;-8.20;99.90
8043;DHT22;4064;48.132;11.366;2022-12-13T03:01:45;-8.20;99.90
8043;DHT22;4064;48.132;11.366;2022-12-13T03:07:31;-8.30;99.90
8043;DHT22;4064;48.132;11.366;2022-12-13T03:10:08;-8.40;99.90
8043;DHT22;4064;48.132;11.366;2022-12-13T03:12:42;-8.30;99.90
8043;DHT22;4064;48.132;11.366;2022-12-13T03:15:40;-8.20;99.90
8043;DHT22;4064;48.132;11.366;2022-12-13T03:18:11;-8.30;99.90
8043;DHT22;4064;48.132;11.366;2022-12-13T03:20:50;-8.20;99.90
8043;DHT22;4064;48.132;11.366;2022-12-13T03:23:18;-8.30;99.90
8043;DHT22;4064;48.132;11.366;2022-12-13T03:25:45;-8.30;99.90
8043;DHT22;4064;48.132;11.366;2022-12-13T03:28:12;-8.20;99.90
8043;DHT22;4064;48.132;11.366;2022-12-13T03:30:38;-8.30;99.90
8043;DHT22;4064;48.132;11.366;2022-12-13T03:33:04;-8.30;99.90
8043;DHT22;4064;48.132;11.366;2022-12-13T03:35:30;-8.40;99.90
8043;DHT22;4064;48.132;11.366;2022-12-13T03:37:56;-8.40;99.90
8043;DHT22;4064;48.132;11.366;2022-12-13T03:40:22;-8.30;99.90
8043;DHT22;4064;48.132;11.366;2022-12-13T03:42:48;-8.30;99.90
8043;DHT22;4064;48.132;11.366;2022-12-13T03:45:14;-8.20;99.90
8043;DHT22;4064;48.132;11.366;2022-12-13T03:47:39;-8.20;99.90
8043;DHT22;4064;48.132;11.366;2022-12-13T03:50:05;-8.20;99.90
8043;DHT22;4064;48.132;11.366;2022-12-13T03:52:31;-8.20;99.90
8043;DHT22;4064;48.132;11.366;2022-12-13T03:54:56;-8.30;99.90
8043;DHT22;4064;48.132;11.366;2022-12-13T03:57:22;-8.30;99.90
8043;DHT22;4064;48.132;11.366;2022-12-13T03:59:48;-8.30;99.90
8043;DHT22;4064;48.132;11.366;2022-12-13T04:02:13;-8.30;99.90
8043;DHT22;4064;48.132;11.366;2022-12-13T04:04:39;-8.30;99.90
8043;DHT22;4064;48.132;11.366;2022-12-13T04:07:05;-8.30;99.90
8043;DHT22;4064;48.132;11.366;2022-12-13T04:09:30;-8.30;99.90
8043;DHT22;4064;48.132;11.366;2022-12-13T04:11:56;-8.30;99.90
8043;DHT22;4064;48.132;11.366;2022-12-13T04:14:40;-8.30;99.90
8043;DHT22;4064;48.132;11.366;2022-12-13T04:17:06;-8.30;99.90
8043;DHT22;4064;48.132;11.366;2022-12-13T04:19:31;-8.30;99.90
8043;DHT22;4064;48.132;11.366;2022-12-13T04:21:57;-8.40;99.90
8043;DHT22;4064;48.132;11.366;2022-12-13T04:24:26;-8.40;99.90
8043;DHT22;4064;48.132;11.366;2022-12-13T04:26:52;-8.50;99.90
8043;DHT22;4064;48.132;11.366;2022-12-13T04:29:18;-8.40;99.90
8043;DHT22;4064;48.132;11.366;2022-12-13T04:31:44;-8.40;99.90
8043;DHT22;4064;48.132;11.366;2022-12-13T04:34:09;-8.40;99.90
8043;DHT22;4064;48.132;11.366;2022-12-13T04:36:35;-8.40;99.90
8043;DHT22;4064;48.132;11.366;2022-12-13T04:39:02;-8.40;99.90
8043;DHT22;4064;48.132;11.366;2022-12-13T04:41:29;-8.40;99.90
8043;DHT22;4064;48.132;11.366;2022-12-13T04:43:59;-8.40;99.90
8043;DHT22;4064;48.132;11.366;2022-12-13T04:46:24;-8.50;99.90
8043;DHT22;4064;48.132;11.366;2022-12-13T04:48:50;-8.50;99.90
8043;DHT22;4064;48.132;11.366;2022-12-13T04:51:16;-8.60;99.90
8043;DHT22;4064;48.132;11.366;2022-12-13T04:53:41;-8.60;99.90
8043;DHT22;4064;48.132;11.366;2022-12-13T04:56:07;-8.50;99.90
8043;DHT22;4064;48.132;11.366;2022-12-13T04:58:33;-8.60;99.90
8043;DHT22;4064;48.132;11.366;2022-12-13T05:00:59;-8.60;99.90
8043;DHT22;4064;48.132;11.366;2022-12-13T05:03:25;-8.60;99.90
8043;DHT22;4064;48.132;11.366;2022-12-13T05:05:50;-8.60;99.90
8043;DHT22;4064;48.132;11.366;2022-12-13T05:08:16;-8.60;99.90
8043;DHT22;4064;48.132;11.366;2022-12-13T05:10:42;-8.50;99.90
8043;DHT22;4064;48.132;11.366;2022-12-13T05:13:07;-8.60;99.90
8043;DHT22;4064;48.132;11.366;2022-12-13T05:15:33;-8.60;99.90
8043;DHT22;4064;48.132;11.366;2022-12-13T05:18:03;-8.60;99.90
8043;DHT22;4064;48.132;11.366;2022-12-13T05:20:29;-8.60;99.90
8043;DHT22;4064;48.132;11.366;2022-12-13T05:22:56;-8.60;99.90
8043;DHT22;4064;48.132;11.366;2022-12-13T05:25:25;-8.60;99.90
8043;DHT22;4064;48.132;11.366;2022-12-13T05:27:51;-8.60;99.90
8043;DHT22;4064;48.132;11.366;2022-12-13T05:30:18;-8.50;99.90
8043;DHT22;4064;48.132;11.366;2022-12-13T05:32:44;-8.60;99.90
8043;DHT22;4064;48.132;11.366;2022-12-13T05:35:12;-8.60;99.90
8043;DHT22;4064;48.132;11.366;2022-12-13T05:37:38;-8.60;99.90
8043;DHT22;4064;48.132;11.366;2022-12-13T05:40:04;-8.60;99.90
8043;DHT22;4064;48.132;11.366;2022-12-13T05:42:30;-8.60;99.90
8043;DHT22;4064;48.132;11.366;2022-12-13T05:44:56;-8.60;99.90
8043;DHT22;4064;48.132;11.366;2022-12-13T05:47:21;-8.60;99.90
8043;DHT22;4064;48.132;11.366;2022-12-13T05:49:47;-8.70;99.90
8043;DHT22;4064;48.132;11.366;2022-12-13T05:52:17;-8.70;99.90
8043;DHT22;4064;48.132;11.366;2022-12-13T05:54:43;-8.60;99.90
8043;DHT22;4064;48.132;11.366;2022-12-13T05:57:09;-8.50;99.90
8043;DHT22;4064;48.132;11.366;2022-12-13T05:59:35;-8.60;99.90
8043;DHT22;4064;48.132;11.366;2022-12-13T06:02:00;-8.60;99.90
8043;DHT22;4064;48.132;11.366;2022-12-13T06:04:26;-8.70;99.90
8043;DHT22;4064;48.132;11.366;2022-12-13T06:06:52;-8.70;99.90
8043;DHT22;4064;48.132;11.366;2022-12-13T06:09:18;-8.90;99.90
8043;DHT22;4064;48.132;11.366;2022-12-13T06:11:44;-8.90;99.90
8043;DHT22;4064;48.132;11.366;2022-12-13T06:14:10;-8.90;99.90
8043;DHT22;4064;48.132;11.366;2022-12-13T06:16:35;-9.00;99.90
8043;DHT22;4064;48.132;11.366;2022-12-13T06:19:01;-8.90;99.90
8043;DHT22;4064;48.132;11.366;2022-12-13T06:21:27;-8.80;99.90
8043;DHT22;4064;48.132;11.366;2022-12-13T06:23:53;-8.80;99.90
8043;DHT22;4064;48.132;11.366;2022-12-13T06:26:19;-8.80;99.90
8043;DHT22;4064;48.132;11.366;2022-12-13T06:28:44;-8.80;99.90
8043;DHT22;4064;48.132;11.366;2022-12-13T06:31:10;-8.80;99.90
8043;DHT22;4064;48.132;11.366;2022-12-13T06:33:36;-8.90;99.90
8043;DHT22;4064;48.132;11.366;2022-12-13T06:36:04;-9.00;99.90
8043;DHT22;4064;48.132;11.366;2022-12-13T06:38:30;-9.00;99.90
8043;DHT22;4064;48.132;11.366;2022-12-13T06:41:09;-9.00;99.90
8043;DHT22;4064;48.132;11.366;2022-12-13T06:43:35;-9.00;99.90
8043;DHT22;4064;48.132;11.366;2022-12-13T06:46:04;-9.00;99.90
8043;DHT22;4064;48.132;11.366;2022-12-13T06:48:30;-9.10;99.90
8043;DHT22;4064;48.132;11.366;2022-12-13T06:50:59;-9.20;99.90
8043;DHT22;4064;48.132;11.366;2022-12-13T06:53:26;-9.20;99.90
8043;DHT22;4064;48.132;11.366;2022-12-13T06:55:51;-9.20;99.90
8043;DHT22;4064;48.132;11.366;2022-12-13T06:58:17;-9.10;99.90
8043;DHT22;4064;48.132;11.366;2022-12-13T07:00:42;-9.20;99.90
8043;DHT22;4064;48.132;11.366;2022-12-13T07:03:10;-9.00;99.90
8043;DHT22;4064;48.132;11.366;2022-12-13T07:05:37;-9.10;99.90
8043;DHT22;4064;48.132;11.366;2022-12-13T07:08:03;-9.00;99.90
8043;DHT22;4064;48.132;11.366;2022-12-13T07:10:29;-9.00;99.90
8043;DHT22;4064;48.132;11.366;2022-12-13T07:12:55;-9.10;99.90
8043;DHT22;4064;48.132;11.366;2022-12-13T07:15:22;-9.10;99.90
8043;DHT22;4064;48.132;11.366;2022-12-13T07:17:51;-9.00;99.90
8043;DHT22;4064;48.132;11.366;2022-12-13T07:20:17;-9.00;99.90
8043;DHT22;4064;48.132;11.366;2022-12-13T07:22:44;-9.00;99.90
8043;DHT22;4064;48.132;11.366;2022-12-13T07:25:11;-9.00;99.90
8043;DHT22;4064;48.132;11.366;2022-12-13T07:27:37;-9.00;99.90
8043;DHT22;4064;48.132;11.366;2022-12-13T07:30:03;-9.00;99.90
8043;DHT22;4064;48.132;11.366;2022-12-13T07:32:29;-8.90;99.90
8043;DHT22;4064;48.132;11.366;2022-12-13T07:34:55;-9.00;99.90
8043;DHT22;4064;48.132;11.366;2022-12-13T07:37:20;-9.00;99.90
8043;DHT22;4064;48.132;11.366;2022-12-13T07:39:46;-8.90;99.90
8043;DHT22;4064;48.132;11.366;2022-12-13T07:42:12;-8.90;99.90
8043;DHT22;4064;48.132;11.366;2022-12-13T07:44:37;-9.00;99.90
8043;DHT22;4064;48.132;11.366;2022-12-13T07:47:03;-8.90;99.90
8043;DHT22;4064;48.132;11.366;2022-12-13T07:49:29;-8.90;99.90
8043;DHT22;4064;48.132;11.366;2022-12-13T07:51:54;-8.80;99.90
8043;DHT22;4064;48.132;11.366;2022-12-13T07:54:21;-8.80;99.90
8043;DHT22;4064;48.132;11.366;2022-12-13T07:56:46;-8.80;99.90
8043;DHT22;4064;48.132;11.366;2022-12-13T07:59:12;-8.80;99.90
8043;DHT22;4064;48.132;11.366;2022-12-13T08:01:39;-8.80;99.90
8043;DHT22;4064;48.132;11.366;2022-12-13T08:04:04;-8.80;99.90
8043;DHT22;4064;48.132;11.366;2022-12-13T08:06:35;-8.90;99.90
8043;DHT22;4064;48.132;11.366;2022-12-13T08:09:01;-9.00;99.90
8043;DHT22;4064;48.132;11.366;2022-12-13T08:11:27;-9.00;99.90
8043;DHT22;4064;48.132;11.366;2022-12-13T08:13:53;-9.00;99.90
8043;DHT22;4064;48.132;11.366;2022-12-13T08:16:19;-8.90;99.90
8043;DHT22;4064;48.132;11.366;2022-12-13T08:18:44;-8.70;99.90
8043;DHT22;4064;48.132;11.366;2022-12-13T08:21:12;-8.60;99.90
8043;DHT22;4064;48.132;11.366;2022-12-13T08:23:38;-8.50;99.90
8043;DHT22;4064;48.132;11.366;2022-12-13T08:26:04;-8.40;99.90
8043;DHT22;4064;48.132;11.366;2022-12-13T08:28:31;-8.40;99.90
8043;DHT22;4064;48.132;11.366;2022-12-13T08:31:09;-8.40;99.90
8043;DHT22;4064;48.132;11.366;2022-12-13T08:33:39;-8.30;99.90
8043;DHT22;4064;48.132;11.366;2022-12-13T08:36:12;-8.30;99.90
8043;DHT22;4064;48.132;11.366;2022-12-13T08:38:40;-8.30;99.90
8043;DHT22;4064;48.132;11.366;2022-12-13T08:41:06;-8.20;99.90
8043;DHT22;4064;48.132;11.366;2022-12-13T08:43:33;-8.00;99.90
8043;DHT22;4064;48.132;11.366;2022-12-13T08:45:58;-7.80;99.90
8043;DHT22;4064;48.132;11.366;2022-12-13T08:48:24;-7.70;99.90
8043;DHT22;4064;48.132;11.366;2022-12-13T08:50:50;-7.50;99.90
8043;DHT22;4064;48.132;11.366;2022-12-13T08:53:15;-7.30;99.90
8043;DHT22;4064;48.132;11.366;2022-12-13T08:55:41;-7.20;99.90
8043;DHT22;4064;48.132;11.366;2022-12-13T08:58:06;-7.10;99.90
8043;DHT22;4064;48.132;11.366;2022-12-13T09:00:34;-6.90;99.90
8043;DHT22;4064;48.132;11.366;2022-12-13T09:03:00;-6.80;99.90
8043;DHT22;4064;48.132;11.366;2022-12-13T09:05:28;-6.80;99.90
8043;DHT22;4064;48.132;11.366;2022-12-13T09:07:57;-6.70;99.90
8043;DHT22;4064;48.132;11.366;2022-12-13T09:10:23;-6.60;99.90
8043;DHT22;4064;48.132;11.366;2022-12-13T09:12:49;-6.40;99.90
8043;DHT22;4064;48.132;11.366;2022-12-13T09:15:15;-6.30;99.90
8043;DHT22;4064;48.132;11.366;2022-12-13T09:17:40;-6.20;99.90
8043;DHT22;4064;48.132;11.366;2022-12-13T09:20:08;-6.00;99.90
8043;DHT22;4064;48.132;11.366;2022-12-13T09:22:35;-5.90;99.90
8043;DHT22;4064;48.132;11.366;2022-12-13T09:25:01;-5.90;99.90
8043;DHT22;4064;48.132;11.366;2022-12-13T09:27:27;-5.70;99.90
8043;DHT22;4064;48.132;11.366;2022-12-13T09:29:54;-5.70;99.90
8043;DHT22;4064;48.132;11.366;2022-12-13T09:32:20;-5.50;99.90
8043;DHT22;4064;48.132;11.366;2022-12-13T09:34:46;-5.50;99.90
8043;DHT22;4064;48.132;11.366;2022-12-13T09:37:11;-5.30;99.90
8043;DHT22;4064;48.132;11.366;2022-12-13T09:39:38;-5.30;99.90
8043;DHT22;4064;48.132;11.366;2022-12-13T09:42:05;-5.30;99.90
8043;DHT22;4064;48.132;11.366;2022-12-13T09:44:38;-5.20;99.90
8043;DHT22;4064;48.132;11.366;2022-12-13T09:47:12;-5.10;99.90
8043;DHT22;4064;48.132;11.366;2022-12-13T09:49:43;-4.70;99.90
8043;DHT22;4064;48.132;11.366;2022-12-13T09:52:14;-4.50;99.90
8043;DHT22;4064;48.132;11.366;2022-12-13T09:54:40;-4.40;99.90
8043;DHT22;4064;48.132;11.366;2022-12-13T09:57:20;-4.30;99.90
8043;DHT22;4064;48.132;11.366;2022-12-13T09:59:47;-4.30;99.90
8043;DHT22;4064;48.132;11.366;2022-12-13T10:02:25;-4.30;99.90
8043;DHT22;4064;48.132;11.366;2022-12-13T10:04:51;-4.30;99.90
8043;DHT22;4064;48.132;11.366;2022-12-13T10:07:21;-4.30;99.90
8043;DHT22;4064;48.132;11.366;2022-12-13T10:09:47;-4.40;99.90
8043;DHT22;4064;48.132;11.366;2022-12-13T10:12:15;-4.30;99.90
8043;DHT22;4064;48.132;11.366;2022-12-13T10:14:50;-4.30;99.90
8043;DHT22;4064;48.132;11.366;2022-12-13T10:17:21;-4.30;99.90
8043;DHT22;4064;48.132;11.366;2022-12-13T10:19:48;-4.30;99.90
8043;DHT22;4064;48.132;11.366;2022-12-13T10:22:19;-4.20;99.90
8043;DHT22;4064;48.132;11.366;2022-12-13T10:24:54;-4.20;99.90
8043;DHT22;4064;48.132;11.366;2022-12-13T10:32:32;-4.10;99.90
8043;DHT22;4064;48.132;11.366;2022-12-13T10:35:22;-4.10;99.90
8043;DHT22;4064;48.132;11.366;2022-12-13T10:37:48;-4.10;99.90
8043;DHT22;4064;48.132;11.366;2022-12-13T10:40:43;-4.10;99.90
8043;DHT22;4064;48.132;11.366;2022-12-13T10:43:23;-4.00;99.90
8043;DHT22;4064;48.132;11.366;2022-12-13T10:48:39;-3.90;99.80
8043;DHT22;4064;48.132;11.366;2022-12-13T10:51:12;-3.80;99.90
8043;DHT22;4064;48.132;11.366;2022-12-13T10:53:44;-3.80;99.90
8043;DHT22;4064;48.132;11.366;2022-12-13T10:56:11;-3.70;99.90
8043;DHT22;4064;48.132;11.366;2022-12-13T10:58:39;-3.70;99.90
8043;DHT22;4064;48.132;11.366;2022-12-13T11:03:42;-3.50;99.80
8043;DHT22;4064;48.132;11.366;2022-12-13T11:06:14;-3.50;99.80
8043;DHT22;4064;48.132;11.366;2022-12-13T11:08:40;-3.50;98.80
8043;DHT22;4064;48.132;11.366;2022-12-13T11:11:08;-3.40;99.70
8043;DHT22;4064;48.132;11.366;2022-12-13T11:13:45;-3.40;99.60
8043;DHT22;4064;48.132;11.366;2022-12-13T11:19:21;-3.30;98.90
8043;DHT22;4064;48.132;11.366;2022-12-13T11:21:49;-3.30;99.10
8043;DHT22;4064;48.132;11.366;2022-12-13T11:24:23;-3.30;99.60
8043;DHT22;4064;48.132;11.366;2022-12-13T11:26:56;-3.20;99.40
8043;DHT22;4064;48.132;11.366;2022-12-13T11:29:28;-3.10;99.40
8043;DHT22;4064;48.132;11.366;2022-12-13T11:40:03;-2.70;99.20
8043;DHT22;4064;48.132;11.366;2022-12-13T11:42:52;-2.60;98.60
8043;DHT22;4064;48.132;11.366;2022-12-13T11:45:28;-2.50;98.80
8043;DHT22;4064;48.132;11.366;2022-12-13T11:48:35;-2.70;97.30
8043;DHT22;4064;48.132;11.366;2022-12-13T11:51:07;-2.70;98.90
8043;DHT22;4064;48.132;11.366;2022-12-13T11:53:54;-2.60;98.40
8043;DHT22;4064;48.132;11.366;2022-12-13T11:56:25;-2.40;99.20
8043;DHT22;4064;48.132;11.366;2022-12-13T11:58:57;-2.30;98.30
8043;DHT22;4064;48.132;11.366;2022-12-13T12:01:31;-2.20;96.90
8043;DHT22;4064;48.132;11.366;2022-12-13T12:04:29;-2.30;97.40
8043;DHT22;4064;48.132;11.366;2022-12-13T12:06:57;-2.30;98.50
8043;DHT22;4064;48.132;11.366;2022-12-13T12:09:25;-2.20;98.70
8043;DHT22;4064;48.132;11.366;2022-12-13T12:12:11;-2.30;97.50
8043;DHT22;4064;48.132;11.366;2022-12-13T12:15:06;-2.30;98.00
8043;DHT22;4064;48.132;11.366;2022-12-13T12:17:32;-2.20;98.10
8043;DHT22;4064;48.132;11.366;2022-12-13T12:19:59;-2.20;97.40
8043;DHT22;4064;48.132;11.366;2022-12-13T12:22:50;-2.20;98.10
8043;DHT22;4064;48.132;11.366;2022-12-13T12:33:53;-2.40;98.70
8043;DHT22;4064;48.132;11.366;2022-12-13T12:39:33;-2.70;98.50
8043;DHT22;4064;48.132;11.366;2022-12-13T12:42:32;-2.70;98.30
8043;DHT22;4064;48.132;11.366;2022-12-13T12:45:16;-2.70;98.10
8043;DHT22;4064;48.132;11.366;2022-12-13T12:51:09;-2.80;99.00
8043;DHT22;4064;48.132;11.366;2022-12-13T12:53:42;-2.80;98.90
8043;DHT22;4064;48.132;11.366;2022-12-13T12:56:21;-2.90;99.20
8043;DHT22;4064;48.132;11.366;2022-12-13T13:03:49;-3.10;98.50
8043;DHT22;4064;48.132;11.366;2022-12-13T13:06:22;-3.10;99.00
8043;DHT22;4064;48.132;11.366;2022-12-13T13:09:00;-2.90;99.50
8043;DHT22;4064;48.132;11.366;2022-12-13T13:11:29;-2.90;99.30
8043;DHT22;4064;48.132;11.366;2022-12-13T13:21:50;-2.90;98.70
8043;DHT22;4064;48.132;11.366;2022-12-13T13:24:30;-3.00;98.60
8043;DHT22;4064;48.132;11.366;2022-12-13T13:29:39;-3.20;98.40
8043;DHT22;4064;48.132;11.366;2022-12-13T13:34:38;-3.50;99.20
8043;DHT22;4064;48.132;11.366;2022-12-13T13:42:28;-3.70;99.20
8043;DHT22;4064;48.132;11.366;2022-12-13T13:48:15;-3.80;99.60
8043;DHT22;4064;48.132;11.366;2022-12-13T14:02:57;-4.00;99.90
8043;DHT22;4064;48.132;11.366;2022-12-13T14:22:10;-4.40;99.90
8043;DHT22;4064;48.132;11.366;2022-12-13T14:29:56;-4.60;99.90
8043;DHT22;4064;48.132;11.366;2022-12-13T14:32:28;-4.70;99.90
8043;DHT22;4064;48.132;11.366;2022-12-13T14:34:56;-4.80;99.90
8043;DHT22;4064;48.132;11.366;2022-12-13T14:39:58;-4.90;99.90
8043;DHT22;4064;48.132;11.366;2022-12-13T14:42:26;-4.90;99.90
8043;DHT22;4064;48.132;11.366;2022-12-13T14:44:54;-4.90;99.90
8043;DHT22;4064;48.132;11.366;2022-12-13T14:47:21;-4.90;99.90
8043;DHT22;4064;48.132;11.366;2022-12-13T14:49:54;-5.00;99.90
8043;DHT22;4064;48.132;11.366;2022-12-13T14:52:26;-5.00;99.90
8043;DHT22;4064;48.132;11.366;2022-12-13T14:54:59;-5.00;99.90
8043;DHT22;4064;48.132;11.366;2022-12-13T14:57:27;-4.90;99.90
8043;DHT22;4064;48.132;11.366;2022-12-13T14:59:56;-4.90;99.90
8043;DHT22;4064;48.132;11.366;2022-12-13T15:02:24;-5.10;99.90
8043;DHT22;4064;48.132;11.366;2022-12-13T15:04:55;-5.10;99.90
8043;DHT22;4064;48.132;11.366;2022-12-13T15:07:31;-5.20;99.90
8043;DHT22;4064;48.132;11.366;2022-12-13T15:10:03;-5.20;99.90
8043;DHT22;4064;48.132;11.366;2022-12-13T15:12:32;-5.30;99.90
8043;DHT22;4064;48.132;11.366;2022-12-13T15:15:03;-5.30;99.90
8043;DHT22;4064;48.132;11.366;2022-12-13T15:17:35;-5.30;99.90
8043;DHT22;4064;48.132;11.366;2022-12-13T15:20:27;-5.30;99.90
8043;DHT22;4064;48.132;11.366;2022-12-13T15:23:22;-5.30;99.90
8043;DHT22;4064;48.132;11.366;2022-12-13T15:26:15;-5.30;99.90
8043;DHT22;4064;48.132;11.366;2022-12-13T15:28:43;-5.30;99.90
8043;DHT22;4064;48.132;11.366;2022-12-13T15:31:10;-5.40;99.90
8043;DHT22;4064;48.132;11.366;2022-12-13T15:33:36;-5.40;99.90
8043;DHT22;4064;48.132;11.366;2022-12-13T15:36:09;-5.50;99.90
8043;DHT22;4064;48.132;11.366;2022-12-13T15:38:42;-5.50;99.90
8043;DHT22;4064;48.132;11.366;2022-12-13T15:41:16;-5.40;99.90
8043;DHT22;4064;48.132;11.366;2022-12-13T15:43:48;-5.40;99.90
8043;DHT22;4064;48.132;11.366;2022-12-13T15:46:26;-5.40;99.90
8043;DHT22;4064;48.132;11.366;2022-12-13T15:48:53;-5.50;99.90
8043;DHT22;4064;48.132;11.366;2022-12-13T15:51:20;-5.50;99.90
8043;DHT22;4064;48.132;11.366;2022-12-13T15:54:15;-5.60;99.90
8043;DHT22;4064;48.132;11.366;2022-12-13T15:57:10;-5.70;99.90
8043;DHT22;4064;48.132;11.366;2022-12-13T15:59:38;-5.60;99.90
8043;DHT22;4064;48.132;11.366;2022-12-13T16:02:14;-5.60;99.90
8043;DHT22;4064;48.132;11.366;2022-12-13T16:04:40;-5.50;99.90
8043;DHT22;4064;48.132;11.366;2022-12-13T16:07:21;-5.50;99.90
8043;DHT22;4064;48.132;11.366;2022-12-13T16:09:47;-5.60;99.90
8043;DHT22;4064;48.132;11.366;2022-12-13T16:12:28;-5.60;99.90
8043;DHT22;4064;48.132;11.366;2022-12-13T16:15:11;-5.60;99.90
8043;DHT22;4064;48.132;11.366;2022-12-13T16:17:39;-5.70;99.90
8043;DHT22;4064;48.132;11.366;2022-12-13T16:20:11;-5.70;99.90
8043;DHT22;4064;48.132;11.366;2022-12-13T16:22:39;-5.60;99.90
8043;DHT22;4064;48.132;11.366;2022-12-13T16:25:04;-5.60;99.90
8043;DHT22;4064;48.132;11.366;2022-12-13T16:27:30;-5.70;99.90
8043;DHT22;4064;48.132;11.366;2022-12-13T16:29:56;-5.80;99.90
8043;DHT22;4064;48.132;11.366;2022-12-13T16:32:22;-5.90;99.90
8043;DHT22;4064;48.132;11.366;2022-12-13T16:34:47;-5.90;99.90
8043;DHT22;4064;48.132;11.366;2022-12-13T16:37:13;-5.90;99.90
8043;DHT22;4064;48.132;11.366;2022-12-13T16:39:39;-5.80;99.90
8043;DHT22;4064;48.132;11.366;2022-12-13T16:42:05;-5.80;99.90
8043;DHT22;4064;48.132;11.366;2022-12-13T16:44:36;-5.80;99.90
8043;DHT22;4064;48.132;11.366;2022-12-13T16:47:06;-5.90;99.90
8043;DHT22;4064;48.132;11.366;2022-12-13T16:49:32;-5.90;99.90
8043;DHT22;4064;48.132;11.366;2022-12-13T16:51:58;-5.90;99.90
8043;DHT22;4064;48.132;11.366;2022-12-13T16:54:24;-5.90;99.90
8043;DHT22;4064;48.132;11.366;2022-12-13T16:56:51;-5.90;99.90
8043;DHT22;4064;48.132;11.366;2022-12-13T16:59:20;-5.80;99.90
8043;DHT22;4064;48.132;11.366;2022-12-13T17:01:47;-5.80;99.90
8043;DHT22;4064;48.132;11.366;2022-12-13T17:04:17;-5.80;99.90
8043;DHT22;4064;48.132;11.366;2022-12-13T17:06:43;-5.90;99.90
8043;DHT22;4064;48.132;11.366;2022-12-13T17:09:09;-5.90;99.90
8043;DHT22;4064;48.132;11.366;2022-12-13T17:11:35;-5.90;99.90
8043;DHT22;4064;48.132;11.366;2022-12-13T17:14:02;-6.10;99.90
8043;DHT22;4064;48.132;11.366;2022-12-13T17:16:29;-6.00;99.90
8043;DHT22;4064;48.132;11.366;2022-12-13T17:18:54;-6.00;99.90
8043;DHT22;4064;48.132;11.366;2022-12-13T17:21:22;-6.10;99.90
8043;DHT22;4064;48.132;11.366;2022-12-13T17:23:55;-6.00;99.90
8043;DHT22;4064;48.132;11.366;2022-12-13T17:26:21;-6.10;99.90
8043;DHT22;4064;48.132;11.366;2022-12-13T17:28:47;-6.00;99.90
8043;DHT22;4064;48.132;11.366;2022-12-13T17:31:14;-6.00;99.90
8043;DHT22;4064;48.132;11.366;2022-12-13T17:33:41;-6.00;99.90
8043;DHT22;4064;48.132;11.366;2022-12-13T17:36:08;-6.10;99.90
8043;DHT22;4064;48.132;11.366;2022-12-13T17:38:34;-6.20;99.90
8043;DHT22;4064;48.132;11.366;2022-12-13T17:41:00;-6.10;99.90
8043;DHT22;4064;48.132;11.366;2022-12-13T17:43:26;-6.20;99.90
8043;DHT22;4064;48.132;11.366;2022-12-13T17:46:00;-6.20;99.90
8043;DHT22;4064;48.132;11.366;2022-12-13T17:48:27;-6.20;99.90
8043;DHT22;4064;48.132;11.366;2022-12-13T17:50:53;-6.20;99.90
8043;DHT22;4064;48.132;11.366;2022-12-13T17:53:21;-6.20;99.90